sensor_id;sensor_type;location;lat;lon;timestamp;P1;durP1;ratioP1;P2;durP2;ratioP2
79365;SDS011;68833;53.160;17.920;2024-01-30T00:00:27;77.90;;;39.10;;
79365;SDS011;68833;53.160;17.920;2024-01-30T00:03:29;89.20;;;46.20;;
79365;SDS011;68833;53.160;17.920;2024-01-30T00:05:56;92.70;;;49.80;;
79365;SDS011;68833;53.160;17.920;2024-01-30T00:08:26;95.70;;;50.40;;
79365;SDS011;68833;53.160;17.920;2024-01-30T00:10:53;111.50;;;55.90;;
79365;SDS011;68833;53.160;17.920;2024-01-30T00:13:21;91.10;;;46.50;;
79365;SDS011;68833;53.160;17.920;2024-01-30T00:15:51;81.80;;;45.20;;
79365;SDS011;68833;53.160;17.920;2024-01-30T00:18:22;86.90;;;43.10;;
79365;SDS011;68833;53.160;17.920;2024-01-30T00:20:49;78.90;;;40.40;;
79365;SDS011;68833;53.160;17.920;2024-01-30T00:23:17;87.70;;;43.60;;
79365;SDS011;68833;53.160;17.920;2024-01-30T00:25:44;76.10;;;41.00;;
79365;SDS011;68833;53.160;17.920;2024-01-30T00:28:11;84.00;;;41.50;;
79365;SDS011;68833;53.160;17.920;2024-01-30T00:30:38;78.00;;;40.80;;
79365;SDS011;68833;53.160;17.920;2024-01-30T00:33:08;78.60;;;38.20;;
79365;SDS011;68833;53.160;17.920;2024-01-30T00:35:36;100.30;;;42.70;;
79365;SDS011;68833;53.160;17.920;2024-01-30T00:38:03;93.30;;;39.10;;
79365;SDS011;68833;53.160;17.920;2024-01-30T00:40:33;112.70;;;46.90;;
79365;SDS011;68833;53.160;17.920;2024-01-30T00:43:00;94.90;;;39.50;;
79365;SDS011;68833;53.160;17.920;2024-01-30T00:45:27;67.30;;;29.60;;
79365;SDS011;68833;53.160;17.920;2024-01-30T00:47:55;56.20;;;27.30;;
79365;SDS011;68833;53.160;17.920;2024-01-30T00:50:30;57.10;;;29.60;;
79365;SDS011;68833;53.160;17.920;2024-01-30T00:53:00;49.30;;;26.60;;
79365;SDS011;68833;53.160;17.920;2024-01-30T00:55:27;49.30;;;28.20;;
79365;SDS011;68833;53.160;17.920;2024-01-30T00:57:55;54.30;;;27.20;;
79365;SDS011;68833;53.160;17.920;2024-01-30T01:00:23;52.40;;;27.70;;
79365;SDS011;68833;53.160;17.920;2024-01-30T01:02:55;48.10;;;27.70;;
79365;SDS011;68833;53.160;17.920;2024-01-30T01:05:23;47.10;;;25.90;;
79365;SDS011;68833;53.160;17.920;2024-01-30T01:07:53;47.20;;;26.20;;
79365;SDS011;68833;53.160;17.920;2024-01-30T01:10:28;52.80;;;27.90;;
79365;SDS011;68833;53.160;17.920;2024-01-30T01:13:00;50.50;;;26.50;;
79365;SDS011;68833;53.160;17.920;2024-01-30T01:15:27;53.40;;;28.00;;
79365;SDS011;68833;53.160;17.920;2024-01-30T01:17:54;60.80;;;31.00;;
79365;SDS011;68833;53.160;17.920;2024-01-30T01:20:28;54.40;;;30.30;;
79365;SDS011;68833;53.160;17.920;2024-01-30T01:22:58;54.40;;;29.60;;
79365;SDS011;68833;53.160;17.920;2024-01-30T01:25:25;64.50;;;32.10;;
79365;SDS011;68833;53.160;17.920;2024-01-30T01:28:04;59.30;;;29.10;;
79365;SDS011;68833;53.160;17.920;2024-01-30T01:30:34;54.90;;;29.70;;
79365;SDS011;68833;53.160;17.920;2024-01-30T01:33:05;60.20;;;30.00;;
79365;SDS011;68833;53.160;17.920;2024-01-30T01:35:33;52.60;;;27.90;;
79365;SDS011;68833;53.160;17.920;2024-01-30T01:38:06;53.80;;;27.90;;
79365;SDS011;68833;53.160;17.920;2024-01-30T01:40:36;53.50;;;30.80;;
79365;SDS011;68833;53.160;17.920;2024-01-30T01:43:08;45.20;;;24.90;;
79365;SDS011;68833;53.160;17.920;2024-01-30T01:45:42;46.60;;;24.40;;
79365;SDS011;68833;53.160;17.920;2024-01-30T01:48:10;47.50;;;23.50;;
79365;SDS011;68833;53.160;17.920;2024-01-30T01:53:18;44.90;;;24.00;;
79365;SDS011;68833;53.160;17.920;2024-01-30T01:55:46;46.80;;;24.60;;
79365;SDS011;68833;53.160;17.920;2024-01-30T01:58:27;43.90;;;23.60;;
79365;SDS011;68833;53.160;17.920;2024-01-30T02:00:56;42.00;;;23.40;;
79365;SDS011;68833;53.160;17.920;2024-01-30T02:11:48;39.40;;;21.40;;
79365;SDS011;68833;53.160;17.920;2024-01-30T02:14:15;48.30;;;26.00;;
79365;SDS011;68833;53.160;17.920;2024-01-30T02:16:43;44.90;;;26.10;;
79365;SDS011;68833;53.160;17.920;2024-01-30T02:19:10;45.10;;;24.00;;
79365;SDS011;68833;53.160;17.920;2024-01-30T02:21:38;49.90;;;25.50;;
79365;SDS011;68833;53.160;17.920;2024-01-30T02:24:06;45.70;;;24.60;;
79365;SDS011;68833;53.160;17.920;2024-01-30T02:26:33;52.00;;;27.80;;
79365;SDS011;68833;53.160;17.920;2024-01-30T02:29:03;49.20;;;27.40;;
79365;SDS011;68833;53.160;17.920;2024-01-30T02:31:31;55.40;;;32.70;;
79365;SDS011;68833;53.160;17.920;2024-01-30T02:33:58;55.60;;;32.00;;
79365;SDS011;68833;53.160;17.920;2024-01-30T02:36:26;63.50;;;33.30;;
79365;SDS011;68833;53.160;17.920;2024-01-30T02:38:53;54.40;;;30.10;;
79365;SDS011;68833;53.160;17.920;2024-01-30T02:41:21;62.40;;;34.10;;
79365;SDS011;68833;53.160;17.920;2024-01-30T02:43:49;52.40;;;29.90;;
79365;SDS011;68833;53.160;17.920;2024-01-30T02:46:16;50.00;;;28.20;;
79365;SDS011;68833;53.160;17.920;2024-01-30T02:48:43;56.70;;;32.00;;
79365;SDS011;68833;53.160;17.920;2024-01-30T02:51:11;59.00;;;32.60;;
79365;SDS011;68833;53.160;17.920;2024-01-30T02:53:38;55.50;;;31.20;;
79365;SDS011;68833;53.160;17.920;2024-01-30T02:56:06;58.40;;;30.80;;
79365;SDS011;68833;53.160;17.920;2024-01-30T02:58:36;75.70;;;41.40;;
79365;SDS011;68833;53.160;17.920;2024-01-30T03:01:09;67.00;;;38.60;;
79365;SDS011;68833;53.160;17.920;2024-01-30T03:03:36;60.60;;;32.10;;
79365;SDS011;68833;53.160;17.920;2024-01-30T03:06:05;52.40;;;29.40;;
79365;SDS011;68833;53.160;17.920;2024-01-30T03:08:35;53.80;;;29.90;;
79365;SDS011;68833;53.160;17.920;2024-01-30T03:11:05;63.20;;;37.20;;
79365;SDS011;68833;53.160;17.920;2024-01-30T03:13:34;66.70;;;36.70;;
79365;SDS011;68833;53.160;17.920;2024-01-30T03:18:35;60.40;;;32.90;;
79365;SDS011;68833;53.160;17.920;2024-01-30T03:21:20;64.20;;;33.80;;
79365;SDS011;68833;53.160;17.920;2024-01-30T03:23:48;64.00;;;34.60;;
79365;SDS011;68833;53.160;17.920;2024-01-30T03:26:15;55.20;;;29.80;;
79365;SDS011;68833;53.160;17.920;2024-01-30T03:28:42;84.10;;;41.40;;
79365;SDS011;68833;53.160;17.920;2024-01-30T03:31:13;79.80;;;39.20;;
79365;SDS011;68833;53.160;17.920;2024-01-30T03:33:41;62.10;;;32.50;;
79365;SDS011;68833;53.160;17.920;2024-01-30T03:36:11;61.30;;;34.20;;
79365;SDS011;68833;53.160;17.920;2024-01-30T03:38:39;49.50;;;26.10;;
79365;SDS011;68833;53.160;17.920;2024-01-30T03:41:07;50.40;;;27.50;;
79365;SDS011;68833;53.160;17.920;2024-01-30T03:46:05;43.70;;;24.40;;
79365;SDS011;68833;53.160;17.920;2024-01-30T03:48:36;48.40;;;27.10;;
79365;SDS011;68833;53.160;17.920;2024-01-30T03:51:03;50.10;;;26.90;;
79365;SDS011;68833;53.160;17.920;2024-01-30T03:53:32;50.50;;;27.30;;
79365;SDS011;68833;53.160;17.920;2024-01-30T03:56:00;47.40;;;26.10;;
79365;SDS011;68833;53.160;17.920;2024-01-30T03:58:28;48.60;;;25.20;;
79365;SDS011;68833;53.160;17.920;2024-01-30T04:00:55;49.20;;;26.20;;
79365;SDS011;68833;53.160;17.920;2024-01-30T04:03:23;57.80;;;30.70;;
79365;SDS011;68833;53.160;17.920;2024-01-30T04:05:54;56.80;;;29.40;;
79365;SDS011;68833;53.160;17.920;2024-01-30T04:08:24;61.10;;;31.10;;
79365;SDS011;68833;53.160;17.920;2024-01-30T04:10:51;59.00;;;29.40;;
79365;SDS011;68833;53.160;17.920;2024-01-30T04:13:19;46.40;;;25.70;;
79365;SDS011;68833;53.160;17.920;2024-01-30T04:15:46;49.60;;;26.70;;
79365;SDS011;68833;53.160;17.920;2024-01-30T04:18:13;54.20;;;27.70;;
79365;SDS011;68833;53.160;17.920;2024-01-30T04:20:40;42.90;;;24.70;;
79365;SDS011;68833;53.160;17.920;2024-01-30T04:23:07;43.20;;;24.70;;
79365;SDS011;68833;53.160;17.920;2024-01-30T04:25:37;41.70;;;23.30;;
79365;SDS011;68833;53.160;17.920;2024-01-30T04:28:04;42.40;;;24.50;;
79365;SDS011;68833;53.160;17.920;2024-01-30T04:30:31;37.30;;;20.00;;
79365;SDS011;68833;53.160;17.920;2024-01-30T04:33:00;36.60;;;22.30;;
79365;SDS011;68833;53.160;17.920;2024-01-30T04:35:27;42.40;;;23.90;;
79365;SDS011;68833;53.160;17.920;2024-01-30T04:37:55;39.50;;;22.60;;
79365;SDS011;68833;53.160;17.920;2024-01-30T04:40:22;37.70;;;21.40;;
79365;SDS011;68833;53.160;17.920;2024-01-30T04:42:50;37.10;;;21.00;;
79365;SDS011;68833;53.160;17.920;2024-01-30T04:45:17;40.40;;;24.20;;
79365;SDS011;68833;53.160;17.920;2024-01-30T04:47:45;37.60;;;22.40;;
79365;SDS011;68833;53.160;17.920;2024-01-30T04:50:13;40.40;;;22.40;;
79365;SDS011;68833;53.160;17.920;2024-01-30T04:52:40;39.90;;;21.10;;
79365;SDS011;68833;53.160;17.920;2024-01-30T04:55:07;43.90;;;22.70;;
79365;SDS011;68833;53.160;17.920;2024-01-30T04:57:35;40.70;;;22.40;;
79365;SDS011;68833;53.160;17.920;2024-01-30T05:00:04;38.10;;;21.40;;
79365;SDS011;68833;53.160;17.920;2024-01-30T05:02:32;41.10;;;23.30;;
79365;SDS011;68833;53.160;17.920;2024-01-30T05:04:59;53.30;;;30.60;;
79365;SDS011;68833;53.160;17.920;2024-01-30T05:07:26;51.30;;;29.00;;
79365;SDS011;68833;53.160;17.920;2024-01-30T05:09:53;53.60;;;28.50;;
79365;SDS011;68833;53.160;17.920;2024-01-30T05:12:21;44.10;;;25.70;;
79365;SDS011;68833;53.160;17.920;2024-01-30T05:14:48;43.50;;;23.40;;
79365;SDS011;68833;53.160;17.920;2024-01-30T05:17:15;36.30;;;22.90;;
79365;SDS011;68833;53.160;17.920;2024-01-30T05:19:42;38.50;;;22.50;;
79365;SDS011;68833;53.160;17.920;2024-01-30T05:22:11;45.20;;;23.70;;
79365;SDS011;68833;53.160;17.920;2024-01-30T05:24:41;40.60;;;22.20;;
79365;SDS011;68833;53.160;17.920;2024-01-30T05:27:09;43.40;;;23.20;;
79365;SDS011;68833;53.160;17.920;2024-01-30T05:29:37;38.20;;;22.60;;
79365;SDS011;68833;53.160;17.920;2024-01-30T05:32:04;36.90;;;21.40;;
79365;SDS011;68833;53.160;17.920;2024-01-30T05:34:32;37.50;;;21.00;;
79365;SDS011;68833;53.160;17.920;2024-01-30T05:37:01;39.70;;;23.20;;
79365;SDS011;68833;53.160;17.920;2024-01-30T05:39:28;45.90;;;26.60;;
79365;SDS011;68833;53.160;17.920;2024-01-30T05:41:55;47.20;;;26.10;;
79365;SDS011;68833;53.160;17.920;2024-01-30T05:44:22;37.20;;;22.10;;
79365;SDS011;68833;53.160;17.920;2024-01-30T05:46:49;39.20;;;22.40;;
79365;SDS011;68833;53.160;17.920;2024-01-30T05:49:16;48.30;;;26.50;;
79365;SDS011;68833;53.160;17.920;2024-01-30T05:51:43;43.10;;;24.50;;
79365;SDS011;68833;53.160;17.920;2024-01-30T05:54:10;44.90;;;25.50;;
79365;SDS011;68833;53.160;17.920;2024-01-30T05:56:37;47.70;;;27.80;;
79365;SDS011;68833;53.160;17.920;2024-01-30T05:59:05;46.50;;;26.40;;
79365;SDS011;68833;53.160;17.920;2024-01-30T06:01:32;45.90;;;25.90;;
79365;SDS011;68833;53.160;17.920;2024-01-30T06:04:01;47.80;;;25.00;;
79365;SDS011;68833;53.160;17.920;2024-01-30T06:06:28;45.80;;;24.70;;
79365;SDS011;68833;53.160;17.920;2024-01-30T06:08:56;42.50;;;23.80;;
79365;SDS011;68833;53.160;17.920;2024-01-30T06:11:23;46.10;;;24.90;;
79365;SDS011;68833;53.160;17.920;2024-01-30T06:13:50;41.90;;;24.10;;
79365;SDS011;68833;53.160;17.920;2024-01-30T06:16:17;52.90;;;27.50;;
79365;SDS011;68833;53.160;17.920;2024-01-30T06:18:47;45.10;;;24.10;;
79365;SDS011;68833;53.160;17.920;2024-01-30T06:21:15;46.80;;;24.40;;
79365;SDS011;68833;53.160;17.920;2024-01-30T06:23:42;40.50;;;24.30;;
79365;SDS011;68833;53.160;17.920;2024-01-30T06:26:12;44.10;;;23.40;;
79365;SDS011;68833;53.160;17.920;2024-01-30T06:28:39;42.50;;;23.80;;
79365;SDS011;68833;53.160;17.920;2024-01-30T06:31:06;46.20;;;24.60;;
79365;SDS011;68833;53.160;17.920;2024-01-30T06:33:34;42.90;;;24.00;;
79365;SDS011;68833;53.160;17.920;2024-01-30T06:36:01;43.70;;;24.20;;
79365;SDS011;68833;53.160;17.920;2024-01-30T06:38:31;43.10;;;22.40;;
79365;SDS011;68833;53.160;17.920;2024-01-30T06:40:58;43.10;;;23.20;;
79365;SDS011;68833;53.160;17.920;2024-01-30T06:43:31;42.70;;;23.40;;
79365;SDS011;68833;53.160;17.920;2024-01-30T06:48:29;43.20;;;25.30;;
79365;SDS011;68833;53.160;17.920;2024-01-30T06:50:56;57.40;;;32.40;;
79365;SDS011;68833;53.160;17.920;2024-01-30T06:53:29;55.90;;;32.80;;
79365;SDS011;68833;53.160;17.920;2024-01-30T11:04:00;18.80;;;12.90;;
79365;SDS011;68833;53.160;17.920;2024-01-30T11:06:26;17.50;;;11.60;;
79365;SDS011;68833;53.160;17.920;2024-01-30T11:09:02;16.20;;;10.00;;
79365;SDS011;68833;53.160;17.920;2024-01-30T11:14:39;16.80;;;9.50;;
79365;SDS011;68833;53.160;17.920;2024-01-30T11:17:06;18.30;;;10.10;;
79365;SDS011;68833;53.160;17.920;2024-01-30T11:19:33;16.20;;;9.20;;
79365;SDS011;68833;53.160;17.920;2024-01-30T11:21:59;19.90;;;12.40;;
79365;SDS011;68833;53.160;17.920;2024-01-30T11:24:25;21.10;;;11.90;;
79365;SDS011;68833;53.160;17.920;2024-01-30T11:26:55;20.60;;;12.10;;
79365;SDS011;68833;53.160;17.920;2024-01-30T11:29:29;19.20;;;11.60;;
79365;SDS011;68833;53.160;17.920;2024-01-30T11:31:57;19.80;;;11.40;;
79365;SDS011;68833;53.160;17.920;2024-01-30T11:34:24;16.10;;;9.90;;
79365;SDS011;68833;53.160;17.920;2024-01-30T11:36:51;16.50;;;9.50;;
79365;SDS011;68833;53.160;17.920;2024-01-30T11:39:21;13.10;;;7.80;;
79365;SDS011;68833;53.160;17.920;2024-01-30T11:41:50;18.00;;;9.10;;
79365;SDS011;68833;53.160;17.920;2024-01-30T11:44:18;22.70;;;11.70;;
79365;SDS011;68833;53.160;17.920;2024-01-30T11:46:48;19.20;;;9.50;;
79365;SDS011;68833;53.160;17.920;2024-01-30T11:49:15;22.90;;;11.70;;
79365;SDS011;68833;53.160;17.920;2024-01-30T11:51:45;21.20;;;10.80;;
79365;SDS011;68833;53.160;17.920;2024-01-30T11:54:12;17.60;;;10.10;;
79365;SDS011;68833;53.160;17.920;2024-01-30T11:56:38;21.00;;;11.30;;
79365;SDS011;68833;53.160;17.920;2024-01-30T11:59:05;21.00;;;11.70;;
79365;SDS011;68833;53.160;17.920;2024-01-30T12:01:34;17.10;;;10.40;;
79365;SDS011;68833;53.160;17.920;2024-01-30T12:04:01;16.20;;;9.50;;
79365;SDS011;68833;53.160;17.920;2024-01-30T12:06:29;15.80;;;8.80;;
79365;SDS011;68833;53.160;17.920;2024-01-30T12:08:59;16.60;;;9.60;;
79365;SDS011;68833;53.160;17.920;2024-01-30T12:11:26;17.10;;;8.60;;
79365;SDS011;68833;53.160;17.920;2024-01-30T12:13:56;20.20;;;11.80;;
79365;SDS011;68833;53.160;17.920;2024-01-30T12:16:22;16.50;;;9.00;;
79365;SDS011;68833;53.160;17.920;2024-01-30T12:18:49;23.30;;;12.80;;
79365;SDS011;68833;53.160;17.920;2024-01-30T12:21:16;20.30;;;12.40;;
79365;SDS011;68833;53.160;17.920;2024-01-30T12:23:45;15.70;;;11.10;;
79365;SDS011;68833;53.160;17.920;2024-01-30T12:26:15;22.20;;;11.50;;
79365;SDS011;68833;53.160;17.920;2024-01-30T12:28:49;17.20;;;10.10;;
79365;SDS011;68833;53.160;17.920;2024-01-30T12:31:16;16.60;;;10.80;;
79365;SDS011;68833;53.160;17.920;2024-01-30T12:33:42;17.60;;;10.70;;
79365;SDS011;68833;53.160;17.920;2024-01-30T12:36:11;19.90;;;10.10;;
79365;SDS011;68833;53.160;17.920;2024-01-30T12:38:37;17.10;;;9.90;;
79365;SDS011;68833;53.160;17.920;2024-01-30T12:41:04;15.40;;;8.90;;
79365;SDS011;68833;53.160;17.920;2024-01-30T12:43:33;16.30;;;8.80;;
79365;SDS011;68833;53.160;17.920;2024-01-30T12:46:00;13.60;;;8.90;;
79365;SDS011;68833;53.160;17.920;2024-01-30T12:48:27;17.20;;;10.30;;
79365;SDS011;68833;53.160;17.920;2024-01-30T12:50:56;16.90;;;12.40;;
79365;SDS011;68833;53.160;17.920;2024-01-30T12:53:22;17.50;;;10.70;;
79365;SDS011;68833;53.160;17.920;2024-01-30T12:55:49;17.50;;;9.40;;
79365;SDS011;68833;53.160;17.920;2024-01-30T12:58:20;16.30;;;10.30;;
79365;SDS011;68833;53.160;17.920;2024-01-30T13:00:46;18.50;;;11.20;;
79365;SDS011;68833;53.160;17.920;2024-01-30T13:03:13;11.60;;;8.00;;
79365;SDS011;68833;53.160;17.920;2024-01-30T13:05:43;14.60;;;8.50;;
79365;SDS011;68833;53.160;17.920;2024-01-30T13:08:09;15.90;;;8.80;;
79365;SDS011;68833;53.160;17.920;2024-01-30T13:10:36;18.80;;;9.30;;
79365;SDS011;68833;53.160;17.920;2024-01-30T13:13:02;12.40;;;8.10;;
79365;SDS011;68833;53.160;17.920;2024-01-30T13:15:28;21.50;;;12.20;;
79365;SDS011;68833;53.160;17.920;2024-01-30T13:17:55;21.70;;;13.40;;
79365;SDS011;68833;53.160;17.920;2024-01-30T13:20:23;26.40;;;13.10;;
79365;SDS011;68833;53.160;17.920;2024-01-30T13:22:49;27.00;;;15.40;;
79365;SDS011;68833;53.160;17.920;2024-01-30T13:25:16;16.20;;;9.60;;
79365;SDS011;68833;53.160;17.920;2024-01-30T13:27:42;15.10;;;9.50;;
79365;SDS011;68833;53.160;17.920;2024-01-30T13:30:09;15.40;;;9.60;;
79365;SDS011;68833;53.160;17.920;2024-01-30T13:32:36;21.90;;;10.60;;
79365;SDS011;68833;53.160;17.920;2024-01-30T13:35:03;19.90;;;10.30;;
79365;SDS011;68833;53.160;17.920;2024-01-30T13:37:29;15.90;;;10.20;;
79365;SDS011;68833;53.160;17.920;2024-01-30T13:39:56;13.40;;;8.40;;
79365;SDS011;68833;53.160;17.920;2024-01-30T13:42:22;13.90;;;8.20;;
79365;SDS011;68833;53.160;17.920;2024-01-30T13:44:49;21.70;;;11.10;;
79365;SDS011;68833;53.160;17.920;2024-01-30T13:47:16;23.90;;;11.40;;
79365;SDS011;68833;53.160;17.920;2024-01-30T13:49:44;23.70;;;12.40;;
79365;SDS011;68833;53.160;17.920;2024-01-30T13:52:11;19.60;;;10.80;;
79365;SDS011;68833;53.160;17.920;2024-01-30T13:54:37;21.30;;;12.10;;
79365;SDS011;68833;53.160;17.920;2024-01-30T13:57:04;17.80;;;11.20;;
79365;SDS011;68833;53.160;17.920;2024-01-30T13:59:31;23.50;;;11.70;;
79365;SDS011;68833;53.160;17.920;2024-01-30T14:01:57;22.20;;;12.20;;
79365;SDS011;68833;53.160;17.920;2024-01-30T14:04:24;18.70;;;12.40;;
79365;SDS011;68833;53.160;17.920;2024-01-30T14:06:51;18.80;;;11.50;;
79365;SDS011;68833;53.160;17.920;2024-01-30T14:09:17;22.50;;;13.60;;
79365;SDS011;68833;53.160;17.920;2024-01-30T14:11:44;17.00;;;9.20;;
79365;SDS011;68833;53.160;17.920;2024-01-30T14:14:12;22.60;;;11.70;;
79365;SDS011;68833;53.160;17.920;2024-01-30T14:16:39;16.10;;;10.60;;
79365;SDS011;68833;53.160;17.920;2024-01-30T14:19:06;24.30;;;13.60;;
79365;SDS011;68833;53.160;17.920;2024-01-30T14:21:32;24.60;;;15.80;;
79365;SDS011;68833;53.160;17.920;2024-01-30T14:23:59;25.50;;;14.40;;
79365;SDS011;68833;53.160;17.920;2024-01-30T14:26:26;27.30;;;15.30;;
79365;SDS011;68833;53.160;17.920;2024-01-30T14:28:52;21.90;;;13.00;;
79365;SDS011;68833;53.160;17.920;2024-01-30T14:31:18;22.80;;;13.40;;
79365;SDS011;68833;53.160;17.920;2024-01-30T14:33:46;24.70;;;14.00;;
79365;SDS011;68833;53.160;17.920;2024-01-30T14:36:20;20.00;;;13.10;;
79365;SDS011;68833;53.160;17.920;2024-01-30T14:38:46;19.40;;;13.20;;
79365;SDS011;68833;53.160;17.920;2024-01-30T14:41:13;21.40;;;13.10;;
79365;SDS011;68833;53.160;17.920;2024-01-30T14:43:39;24.70;;;14.30;;
79365;SDS011;68833;53.160;17.920;2024-01-30T14:46:08;20.80;;;14.00;;
79365;SDS011;68833;53.160;17.920;2024-01-30T14:48:35;31.70;;;17.60;;
79365;SDS011;68833;53.160;17.920;2024-01-30T14:51:01;34.10;;;18.70;;
79365;SDS011;68833;53.160;17.920;2024-01-30T14:53:40;27.00;;;15.60;;
79365;SDS011;68833;53.160;17.920;2024-01-30T14:56:06;33.50;;;19.10;;
79365;SDS011;68833;53.160;17.920;2024-01-30T14:58:33;36.50;;;20.30;;
79365;SDS011;68833;53.160;17.920;2024-01-30T15:01:04;38.80;;;22.50;;
79365;SDS011;68833;53.160;17.920;2024-01-30T15:03:30;39.50;;;22.60;;
79365;SDS011;68833;53.160;17.920;2024-01-30T15:05:57;48.50;;;24.90;;
79365;SDS011;68833;53.160;17.920;2024-01-30T15:08:24;47.30;;;29.60;;
79365;SDS011;68833;53.160;17.920;2024-01-30T15:10:50;43.30;;;26.70;;
79365;SDS011;68833;53.160;17.920;2024-01-30T15:13:18;43.80;;;25.40;;
79365;SDS011;68833;53.160;17.920;2024-01-30T15:15:44;39.20;;;22.00;;
79365;SDS011;68833;53.160;17.920;2024-01-30T15:18:11;30.60;;;16.00;;
79365;SDS011;68833;53.160;17.920;2024-01-30T15:20:37;23.40;;;13.30;;
79365;SDS011;68833;53.160;17.920;2024-01-30T15:23:03;23.00;;;14.00;;
79365;SDS011;68833;53.160;17.920;2024-01-30T15:25:30;26.30;;;15.20;;
79365;SDS011;68833;53.160;17.920;2024-01-30T15:27:59;31.60;;;19.70;;
79365;SDS011;68833;53.160;17.920;2024-01-30T15:30:25;36.10;;;21.10;;
79365;SDS011;68833;53.160;17.920;2024-01-30T15:32:51;31.30;;;19.70;;
79365;SDS011;68833;53.160;17.920;2024-01-30T15:35:18;33.60;;;18.80;;
79365;SDS011;68833;53.160;17.920;2024-01-30T15:37:45;29.60;;;17.80;;
79365;SDS011;68833;53.160;17.920;2024-01-30T15:40:11;32.30;;;18.30;;
79365;SDS011;68833;53.160;17.920;2024-01-30T15:42:38;32.70;;;19.50;;
79365;SDS011;68833;53.160;17.920;2024-01-30T15:45:04;32.10;;;19.00;;
79365;SDS011;68833;53.160;17.920;2024-01-30T15:47:31;32.70;;;18.40;;
79365;SDS011;68833;53.160;17.920;2024-01-30T15:49:58;35.40;;;20.60;;
79365;SDS011;68833;53.160;17.920;2024-01-30T15:52:24;36.30;;;20.20;;
79365;SDS011;68833;53.160;17.920;2024-01-30T15:54:50;37.40;;;22.00;;
79365;SDS011;68833;53.160;17.920;2024-01-30T15:57:16;40.90;;;22.50;;
79365;SDS011;68833;53.160;17.920;2024-01-30T15:59:43;36.70;;;20.10;;
79365;SDS011;68833;53.160;17.920;2024-01-30T16:02:09;64.40;;;33.90;;
79365;SDS011;68833;53.160;17.920;2024-01-30T16:04:36;182.40;;;71.90;;
79365;SDS011;68833;53.160;17.920;2024-01-30T16:07:02;180.60;;;94.60;;
79365;SDS011;68833;53.160;17.920;2024-01-30T16:09:29;157.30;;;87.90;;
79365;SDS011;68833;53.160;17.920;2024-01-30T16:11:55;97.40;;;53.50;;
79365;SDS011;68833;53.160;17.920;2024-01-30T16:14:22;62.70;;;35.90;;
79365;SDS011;68833;53.160;17.920;2024-01-30T16:16:49;55.10;;;28.90;;
79365;SDS011;68833;53.160;17.920;2024-01-30T16:19:16;37.90;;;22.10;;
79365;SDS011;68833;53.160;17.920;2024-01-30T16:21:42;36.80;;;21.20;;
79365;SDS011;68833;53.160;17.920;2024-01-30T16:24:10;40.10;;;25.30;;
79365;SDS011;68833;53.160;17.920;2024-01-30T16:26:37;58.30;;;32.30;;
79365;SDS011;68833;53.160;17.920;2024-01-30T16:29:03;133.70;;;59.80;;
79365;SDS011;68833;53.160;17.920;2024-01-30T16:31:30;134.50;;;60.40;;
79365;SDS011;68833;53.160;17.920;2024-01-30T16:33:56;108.70;;;50.20;;
79365;SDS011;68833;53.160;17.920;2024-01-30T16:36:23;104.10;;;45.90;;
79365;SDS011;68833;53.160;17.920;2024-01-30T16:38:49;86.20;;;40.00;;
79365;SDS011;68833;53.160;17.920;2024-01-30T16:41:16;72.00;;;36.20;;
79365;SDS011;68833;53.160;17.920;2024-01-30T16:43:42;70.10;;;33.70;;
79365;SDS011;68833;53.160;17.920;2024-01-30T16:46:12;101.50;;;51.10;;
79365;SDS011;68833;53.160;17.920;2024-01-30T16:48:38;144.50;;;72.70;;
79365;SDS011;68833;53.160;17.920;2024-01-30T16:51:04;142.90;;;74.90;;
79365;SDS011;68833;53.160;17.920;2024-01-30T16:53:31;113.90;;;57.90;;
79365;SDS011;68833;53.160;17.920;2024-01-30T16:56:00;85.90;;;45.90;;
79365;SDS011;68833;53.160;17.920;2024-01-30T16:58:26;56.00;;;28.50;;
79365;SDS011;68833;53.160;17.920;2024-01-30T17:03:35;66.40;;;33.40;;
79365;SDS011;68833;53.160;17.920;2024-01-30T17:06:02;65.70;;;34.40;;
79365;SDS011;68833;53.160;17.920;2024-01-30T17:08:32;63.70;;;35.50;;
79365;SDS011;68833;53.160;17.920;2024-01-30T17:10:59;54.40;;;31.00;;
79365;SDS011;68833;53.160;17.920;2024-01-30T17:13:26;50.00;;;27.90;;
79365;SDS011;68833;53.160;17.920;2024-01-30T17:15:54;47.20;;;27.10;;
79365;SDS011;68833;53.160;17.920;2024-01-30T17:18:21;50.20;;;29.50;;
79365;SDS011;68833;53.160;17.920;2024-01-30T17:20:48;49.30;;;27.60;;
79365;SDS011;68833;53.160;17.920;2024-01-30T17:23:15;51.30;;;30.00;;
79365;SDS011;68833;53.160;17.920;2024-01-30T17:25:43;55.60;;;32.90;;
79365;SDS011;68833;53.160;17.920;2024-01-30T17:28:10;57.40;;;33.60;;
79365;SDS011;68833;53.160;17.920;2024-01-30T17:30:37;58.30;;;32.90;;
79365;SDS011;68833;53.160;17.920;2024-01-30T17:33:04;64.20;;;38.70;;
79365;SDS011;68833;53.160;17.920;2024-01-30T17:35:31;72.30;;;40.30;;
79365;SDS011;68833;53.160;17.920;2024-01-30T17:37:58;69.20;;;37.40;;
79365;SDS011;68833;53.160;17.920;2024-01-30T17:40:26;56.60;;;30.20;;
79365;SDS011;68833;53.160;17.920;2024-01-30T17:42:53;56.00;;;33.30;;
79365;SDS011;68833;53.160;17.920;2024-01-30T17:45:21;65.90;;;36.20;;
79365;SDS011;68833;53.160;17.920;2024-01-30T17:47:48;55.50;;;31.40;;
79365;SDS011;68833;53.160;17.920;2024-01-30T17:50:15;58.60;;;32.30;;
79365;SDS011;68833;53.160;17.920;2024-01-30T17:52:42;55.60;;;32.70;;
79365;SDS011;68833;53.160;17.920;2024-01-30T17:55:10;58.40;;;36.10;;
79365;SDS011;68833;53.160;17.920;2024-01-30T17:57:37;63.20;;;35.80;;
79365;SDS011;68833;53.160;17.920;2024-01-30T18:00:04;64.40;;;36.60;;
79365;SDS011;68833;53.160;17.920;2024-01-30T18:02:33;65.10;;;34.40;;
79365;SDS011;68833;53.160;17.920;2024-01-30T18:05:00;42.20;;;24.20;;
79365;SDS011;68833;53.160;17.920;2024-01-30T18:07:28;42.50;;;25.70;;
79365;SDS011;68833;53.160;17.920;2024-01-30T18:09:55;42.30;;;23.70;;
79365;SDS011;68833;53.160;17.920;2024-01-30T18:12:22;38.60;;;21.70;;
79365;SDS011;68833;53.160;17.920;2024-01-30T18:14:49;48.00;;;25.70;;
79365;SDS011;68833;53.160;17.920;2024-01-30T18:17:17;43.00;;;23.70;;
79365;SDS011;68833;53.160;17.920;2024-01-30T18:19:45;43.10;;;23.30;;
79365;SDS011;68833;53.160;17.920;2024-01-30T18:22:12;37.40;;;22.40;;
79365;SDS011;68833;53.160;17.920;2024-01-30T18:24:39;41.60;;;22.40;;
79365;SDS011;68833;53.160;17.920;2024-01-30T18:27:07;53.70;;;27.70;;
79365;SDS011;68833;53.160;17.920;2024-01-30T18:29:35;46.60;;;24.40;;
79365;SDS011;68833;53.160;17.920;2024-01-30T18:32:03;47.90;;;23.90;;
79365;SDS011;68833;53.160;17.920;2024-01-30T18:34:30;46.20;;;23.70;;
79365;SDS011;68833;53.160;17.920;2024-01-30T18:36:57;57.40;;;29.50;;
79365;SDS011;68833;53.160;17.920;2024-01-30T18:39:27;52.70;;;29.20;;
79365;SDS011;68833;53.160;17.920;2024-01-30T18:41:54;59.10;;;32.20;;
79365;SDS011;68833;53.160;17.920;2024-01-30T18:44:21;63.70;;;34.80;;